Time;durP1;ratioP1;P1;durP2;ratioP2;P2;SDS_P1;SDS_P2;PMS_P1;PMS_P2;Temp;Humidity;BMP_temperature;BMP_pressure;BME280_temperature;BME280_humidity;BME280_pressure;Samples;Min_cycle;Max_cycle;Signal;HPM_P1;HPM_P2
2021/12/07 16:56:53;;;;;;;6.20;1.97;;;3.70;99.90;;;;;;5081501;28;20202;-96
2021/12/07 16:59:19;;;;;;;9.23;1.60;;;3.60;99.90;;;;;;4993461;28;20229;-77
2021/12/07 17:01:45;;;;;;;5.00;1.90;;;3.60;99.90;;;;;;4996320;28;20186;-76
2021/12/07 17:04:10;;;;;;;8.37;1.90;;;3.60;99.90;;;;;;5014202;28;20177;-77
2021/12/07 17:06:37;;;;;;;10.00;2.30;;;3.60;99.90;;;;;;5014134;28;20643;-77
2021/12/07 17:09:05;;;;;;;9.07;2.03;;;3.60;99.90;;;;;;4996447;28;20666;-77
2021/12/07 17:11:31;;;;;;;8.83;2.03;;;3.60;99.90;;;;;;5014245;28;20243;-77
2021/12/07 17:13:57;;;;;;;5.23;1.77;;;3.60;99.90;;;;;;4996288;28;20267;-77
2021/12/07 17:16:23;;;;;;;4.70;1.80;;;3.70;99.90;;;;;;5013770;28;20208;-76
2021/12/07 17:18:49;;;;;;;4.67;1.60;;;3.70;99.90;;;;;;4996190;28;20192;-77
2021/12/07 17:21:14;;;;;;;3.77;1.60;;;3.70;99.90;;;;;;5013806;28;20236;-77
2021/12/07 17:23:40;;;;;;;3.60;1.70;;;3.70;99.90;;;;;;4996118;28;20205;-77
2021/12/07 17:26:06;;;;;;;14.57;5.90;;;3.70;99.90;;;;;;4996231;28;20231;-77
2021/12/07 17:28:32;;;;;;;7.13;2.70;;;3.70;99.90;;;;;;4996184;28;20189;-77
2021/12/07 17:30:59;;;;;;;4.13;1.60;;;3.70;99.90;;;;;;5013719;28;20184;-76
2021/12/07 17:33:27;;;;;;;8.33;2.27;;;3.70;99.90;;;;;;5013613;28;20196;-76
2021/12/07 17:35:53;;;;;;;5.10;1.53;;;3.70;99.90;;;;;;5013557;28;20177;-76
2021/12/07 17:38:19;;;;;;;6.90;2.87;;;3.70;99.90;;;;;;5013947;28;20220;-77
2021/12/07 17:40:47;;;;;;;6.23;1.93;;;3.70;99.90;;;;;;5013655;28;20177;-77
2021/12/07 17:43:12;;;;;;;6.10;2.30;;;3.80;99.90;;;;;;4995993;28;20201;-77
2021/12/07 17:45:39;;;;;;;4.57;2.10;;;3.80;99.90;;;;;;5013521;28;20181;-78
2021/12/07 17:48:06;;;;;;;8.93;2.03;;;3.80;99.90;;;;;;5013738;28;20196;-77
2021/12/07 17:50:33;;;;;;;11.47;2.40;;;3.90;99.90;;;;;;5013606;28;20556;-78
2021/12/07 17:53:00;;;;;;;8.90;2.57;;;3.90;99.90;;;;;;5013265;28;20197;-77
2021/12/07 17:55:28;;;;;;;5.37;1.70;;;3.90;99.90;;;;;;5029216;23;20236;-75
2021/12/07 17:57:54;;;;;;;6.10;1.80;;;3.90;99.90;;;;;;5013243;28;20201;-75
2021/12/07 18:00:24;;;;;;;4.67;1.80;;;3.90;99.90;;;;;;5013021;28;20261;-76
2021/12/07 18:02:50;;;;;;;7.20;2.13;;;3.90;99.90;;;;;;4996285;28;20173;-76
2021/12/07 18:05:18;;;;;;;8.53;2.00;;;3.90;99.90;;;;;;5027315;28;20313;-77
2021/12/07 18:07:44;;;;;;;8.80;1.67;;;3.90;99.90;;;;;;5033009;28;20176;-76
2021/12/07 18:10:16;;;;;;;3.70;1.53;;;4.00;99.90;;;;;;5032660;28;20187;-77
2021/12/07 18:12:43;;;;;;;6.80;1.73;;;4.00;99.90;;;;;;5033145;28;20521;-76
2021/12/07 18:15:11;;;;;;;6.07;1.77;;;4.00;99.90;;;;;;5031775;28;20326;-76
2021/12/07 18:17:38;;;;;;;7.33;1.90;;;4.00;99.90;;;;;;5031544;28;20208;-75
2021/12/07 18:20:06;;;;;;;5.57;2.20;;;4.00;99.90;;;;;;5032917;28;20183;-76
2021/12/07 18:22:32;;;;;;;5.37;1.80;;;4.00;99.90;;;;;;5032221;28;20545;-76
2021/12/07 18:24:58;;;;;;;9.17;2.07;;;4.00;99.90;;;;;;5031250;28;20287;-77
2021/12/07 18:27:24;;;;;;;8.07;2.37;;;4.00;99.90;;;;;;5031581;28;20189;-76
2021/12/07 18:29:49;;;;;;;4.73;1.90;;;4.00;99.90;;;;;;5031648;28;20243;-76
2021/12/07 18:32:15;;;;;;;8.20;2.40;;;4.10;99.90;;;;;;5031504;28;20238;-76
2021/12/07 18:34:41;;;;;;;5.07;1.60;;;4.00;99.90;;;;;;5031436;28;20251;-76
2021/12/07 18:37:07;;;;;;;4.50;1.80;;;4.10;99.90;;;;;;5033052;28;20274;-77
2021/12/07 18:39:32;;;;;;;5.57;1.90;;;4.00;99.90;;;;;;5031216;28;20642;-76
2021/12/07 18:41:58;;;;;;;3.37;1.77;;;4.10;99.90;;;;;;5031497;28;20176;-76
2021/12/07 18:44:24;;;;;;;4.83;2.40;;;4.20;99.90;;;;;;5031511;28;20254;-76
2021/12/07 18:46:49;;;;;;;7.07;2.33;;;4.10;99.90;;;;;;5031462;28;20184;-76
2021/12/07 18:49:15;;;;;;;9.67;2.00;;;4.20;99.90;;;;;;5031422;28;20188;-77
2021/12/07 18:51:43;;;;;;;9.20;1.93;;;4.20;99.90;;;;;;5033080;28;20180;-77
2021/12/07 18:54:09;;;;;;;6.77;1.90;;;4.20;99.90;;;;;;5031220;28;20307;-76
2021/12/07 18:56:37;;;;;;;7.60;2.30;;;4.20;99.90;;;;;;5030948;28;20287;-76
2021/12/07 18:59:03;;;;;;;4.13;1.87;;;4.20;99.90;;;;;;5031365;28;20176;-77
2021/12/07 19:01:31;;;;;;;7.70;2.37;;;4.20;99.90;;;;;;5031980;28;20183;-80
2021/12/07 19:03:57;;;;;;;9.13;2.03;;;4.20;99.90;;;;;;5033744;28;20204;-77
2021/12/07 19:06:22;;;;;;;4.60;1.93;;;4.30;99.90;;;;;;5035066;28;20295;-77
2021/12/07 19:08:48;;;;;;;3.97;1.73;;;4.30;99.90;;;;;;5034246;28;20195;-77
2021/12/07 19:11:15;;;;;;;6.20;1.87;;;4.30;99.90;;;;;;5036775;28;20176;-78
2021/12/07 19:13:41;;;;;;;7.73;2.30;;;4.30;99.90;;;;;;5040653;28;20531;-79
2021/12/07 19:16:07;;;;;;;9.63;2.60;;;4.30;99.90;;;;;;5041539;28;20200;-78
2021/12/07 19:18:43;;;;;;;8.10;2.47;;;4.30;99.90;;;;;;5040250;28;20647;-78
2021/12/07 19:21:10;;;;;;;7.43;2.20;;;4.40;99.90;;;;;;5041409;28;20182;-79
2021/12/07 19:23:37;;;;;;;5.47;2.07;;;4.40;99.90;;;;;;5042937;28;20275;-79
2021/12/07 19:26:04;;;;;;;9.20;2.13;;;4.40;99.90;;;;;;5040592;28;20196;-78
2021/12/07 19:28:31;;;;;;;6.63;2.37;;;4.40;99.90;;;;;;5041537;28;20192;-79
2021/12/07 19:31:00;;;;;;;10.43;2.20;;;4.50;99.90;;;;;;5039907;28;20184;-78
2021/12/07 19:33:27;;;;;;;4.73;1.80;;;4.50;99.90;;;;;;5041255;28;20187;-78
2021/12/07 19:35:54;;;;;;;8.20;2.17;;;4.50;99.90;;;;;;5040344;28;20240;-78
2021/12/07 19:38:20;;;;;;;7.60;2.17;;;4.50;99.90;;;;;;5040972;28;20534;-79
2021/12/07 19:40:47;;;;;;;4.30;1.73;;;4.50;99.90;;;;;;5042732;28;20177;-79
2021/12/07 19:43:14;;;;;;;5.40;2.10;;;4.50;99.90;;;;;;5040276;28;20207;-78
2021/12/07 19:45:42;;;;;;;7.53;1.63;;;4.50;99.90;;;;;;5040249;28;20192;-79
2021/12/07 19:48:09;;;;;;;4.00;1.90;;;4.50;99.90;;;;;;5042394;28;20208;-79
2021/12/07 19:50:46;;;;;;;4.23;1.70;;;4.50;99.90;;;;;;5042258;28;20195;-79
2021/12/07 19:53:16;;;;;;;4.73;1.73;;;4.50;99.90;;;;;;5042521;28;20176;-79
2021/12/07 19:55:42;;;;;;;5.50;1.90;;;4.60;99.90;;;;;;5044240;28;20226;-78
2021/12/07 19:58:09;;;;;;;5.10;1.80;;;4.60;99.90;;;;;;5043219;28;20242;-78
2021/12/07 20:00:42;;;;;;;6.20;1.97;;;4.60;99.90;;;;;;5045717;28;20638;-79
2021/12/07 20:03:09;;;;;;;6.30;1.57;;;4.60;99.90;;;;;;5044704;28;20247;-79
2021/12/07 20:05:35;;;;;;;7.80;1.73;;;4.70;99.90;;;;;;5044423;28;20250;-79
2021/12/07 20:08:02;;;;;;;4.20;1.30;;;4.70;99.90;;;;;;5044907;28;20184;-79
2021/12/07 20:10:29;;;;;;;3.40;1.57;;;4.70;99.90;;;;;;5045448;28;20658;-78
2021/12/07 20:12:56;;;;;;;5.93;2.00;;;4.70;99.90;;;;;;5027152;28;20799;-79
2021/12/07 20:15:22;;;;;;;4.10;1.67;;;4.80;99.90;;;;;;5043422;28;20288;-79
2021/12/07 20:17:48;;;;;;;5.07;1.50;;;4.70;99.90;;;;;;5044479;28;20669;-80
2021/12/07 20:20:16;;;;;;;3.50;1.80;;;4.70;99.90;;;;;;5045714;28;20168;-79
2021/12/07 20:22:42;;;;;;;7.40;1.87;;;4.80;99.90;;;;;;5044803;28;20172;-80
2021/12/07 20:25:08;;;;;;;7.03;2.17;;;4.80;99.90;;;;;;5045274;28;20207;-79
2021/12/07 20:27:34;;;;;;;8.73;2.20;;;4.70;99.90;;;;;;5046024;28;20184;-79
2021/12/07 20:30:00;;;;;;;5.33;1.63;;;4.70;99.90;;;;;;5045718;28;20248;-79
2021/12/07 20:32:26;;;;;;;7.47;2.27;;;4.70;99.90;;;;;;5046977;28;20263;-79
2021/12/07 20:34:52;;;;;;;6.03;1.70;;;4.70;99.90;;;;;;5054294;28;20212;-78
2021/12/07 20:37:18;;;;;;;6.10;1.90;;;4.80;99.90;;;;;;5054456;28;20230;-79
2021/12/07 20:39:43;;;;;;;3.93;1.53;;;4.80;99.90;;;;;;5042893;28;20195;-79
2021/12/07 20:42:11;;;;;;;5.63;1.60;;;4.80;99.90;;;;;;5042936;28;20757;-78
2021/12/07 20:44:37;;;;;;;7.77;2.00;;;4.80;99.90;;;;;;5040173;28;20577;-77
2021/12/07 20:47:03;;;;;;;5.60;1.77;;;4.90;99.90;;;;;;5043663;28;20559;-79
2021/12/07 20:49:29;;;;;;;5.17;1.53;;;4.90;99.90;;;;;;5044215;28;20191;-79
2021/12/07 20:51:56;;;;;;;8.20;1.93;;;4.90;99.90;;;;;;5043285;28;20184;-79
2021/12/07 20:54:22;;;;;;;5.40;1.87;;;4.90;99.90;;;;;;5043572;28;20698;-79
2021/12/07 20:56:48;;;;;;;5.53;1.77;;;4.90;99.90;;;;;;5042658;28;20246;-80
2021/12/07 20:59:15;;;;;;;4.37;1.33;;;4.90;99.90;;;;;;5042809;28;20236;-79
2021/12/07 21:01:42;;;;;;;5.40;1.90;;;4.90;99.90;;;;;;5043367;28;20184;-79
2021/12/07 21:04:09;;;;;;;4.73;1.50;;;4.90;99.90;;;;;;5043031;28;20204;-79
2021/12/07 21:06:35;;;;;;;4.43;1.97;;;4.90;99.90;;;;;;5039125;28;20550;-79
2021/12/07 21:09:00;;;;;;;7.13;1.53;;;4.90;99.90;;;;;;5016229;28;20207;-77
2021/12/07 21:11:26;;;;;;;7.47;2.03;;;5.00;99.90;;;;;;5016890;28;20188;-78
2021/12/07 21:13:54;;;;;;;7.47;2.07;;;5.00;99.90;;;;;;5016938;28;20196;-75
2021/12/07 21:16:21;;;;;;;7.60;1.90;;;5.00;99.90;;;;;;5016618;28;20231;-78
2021/12/07 21:18:48;;;;;;;4.70;1.93;;;5.00;99.90;;;;;;5017904;28;20173;-78
2021/12/07 21:21:14;;;;;;;5.33;1.67;;;5.00;99.90;;;;;;5026176;28;20519;-78
2021/12/07 21:23:40;;;;;;;5.60;1.57;;;5.00;99.90;;;;;;5036890;28;20185;-78
2021/12/07 21:26:07;;;;;;;6.60;1.87;;;5.00;99.90;;;;;;5035723;28;20211;-77
2021/12/07 21:28:34;;;;;;;6.40;2.03;;;5.00;99.90;;;;;;5019400;28;20187;-78
2021/12/07 21:31:00;;;;;;;3.93;1.60;;;5.00;99.90;;;;;;5036800;28;20271;-77
2021/12/07 21:33:27;;;;;;;6.10;1.53;;;5.00;99.90;;;;;;5038310;28;20262;-78
2021/12/07 21:35:53;;;;;;;5.83;1.43;;;5.00;99.90;;;;;;5037928;28;20185;-78
2021/12/07 21:38:19;;;;;;;4.23;1.80;;;5.00;99.90;;;;;;5037609;28;20191;-78
2021/12/07 21:40:44;;;;;;;5.23;1.73;;;5.00;99.90;;;;;;5038005;28;20206;-78
2021/12/07 21:43:11;;;;;;;5.00;1.90;;;5.00;99.90;;;;;;5038096;28;20242;-78
2021/12/07 21:45:36;;;;;;;4.70;1.93;;;5.00;99.90;;;;;;5037344;28;20202;-77
2021/12/07 21:48:03;;;;;;;4.53;1.80;;;5.10;99.90;;;;;;5037522;28;20606;-78
2021/12/07 21:50:29;;;;;;;5.53;1.87;;;5.10;99.90;;;;;;5036370;28;20260;-78
2021/12/07 21:52:57;;;;;;;5.50;2.60;;;5.10;99.90;;;;;;5037204;28;20218;-77
2021/12/07 21:55:23;;;;;;;9.30;1.90;;;5.00;99.90;;;;;;5035078;28;20242;-77
2021/12/07 21:57:50;;;;;;;8.00;2.50;;;5.00;99.90;;;;;;5033885;28;20258;-77
2021/12/07 22:00:21;;;;;;;7.17;1.73;;;5.10;99.90;;;;;;5033774;28;20226;-77
2021/12/07 22:02:46;;;;;;;3.30;1.37;;;5.00;99.90;;;;;;5033409;28;20172;-78
2021/12/07 22:05:12;;;;;;;6.57;1.97;;;5.10;99.90;;;;;;5034417;28;20638;-77
2021/12/07 22:07:38;;;;;;;4.27;1.57;;;5.10;99.90;;;;;;5033544;28;20558;-77
2021/12/07 22:10:07;;;;;;;6.07;2.33;;;5.00;99.90;;;;;;5033335;28;20329;-76
2021/12/07 22:12:34;;;;;;;8.07;1.93;;;5.00;99.90;;;;;;5033264;28;20204;-76
2021/12/07 22:15:01;;;;;;;3.87;1.70;;;4.90;99.90;;;;;;5033434;28;20208;-76
2021/12/07 22:17:27;;;;;;;4.50;1.73;;;4.90;99.90;;;;;;5033215;28;20302;-76
2021/12/07 22:19:52;;;;;;;6.77;1.97;;;4.90;99.90;;;;;;5034420;28;20183;-76
2021/12/07 22:22:18;;;;;;;5.67;1.70;;;4.90;99.90;;;;;;5033465;28;20549;-76
2021/12/07 22:24:44;;;;;;;5.97;1.83;;;4.80;99.90;;;;;;5033008;28;20198;-77
2021/12/07 22:27:11;;;;;;;3.37;1.40;;;4.80;99.90;;;;;;5033068;28;20271;-76
2021/12/07 22:29:38;;;;;;;7.27;1.73;;;4.70;99.90;;;;;;5033122;28;20176;-76
2021/12/07 22:32:05;;;;;;;8.13;1.50;;;4.70;99.90;;;;;;5032812;28;20192;-76
2021/12/07 22:34:31;;;;;;;5.93;1.90;;;4.70;99.90;;;;;;5031892;28;20208;-76
2021/12/07 22:37:00;;;;;;;5.30;2.43;;;4.60;99.90;;;;;;5032961;28;20270;-76
2021/12/07 22:39:26;;;;;;;5.17;1.80;;;4.60;99.90;;;;;;5032706;28;20180;-77
2021/12/07 22:41:52;;;;;;;6.40;1.87;;;4.50;99.90;;;;;;5033144;28;20259;-77
2021/12/07 22:44:18;;;;;;;4.50;1.50;;;4.50;99.90;;;;;;5033317;28;20287;-76
2021/12/07 22:46:44;;;;;;;3.80;1.30;;;4.50;99.90;;;;;;5035110;28;20192;-76
2021/12/07 22:49:09;;;;;;;5.87;1.57;;;4.40;99.90;;;;;;5035617;28;20279;-77
2021/12/07 22:51:36;;;;;;;6.63;2.57;;;4.40;99.90;;;;;;5036910;28;20203;-77
2021/12/07 22:54:02;;;;;;;4.90;1.50;;;4.40;99.90;;;;;;5036480;28;20592;-77
2021/12/07 22:56:28;;;;;;;3.90;1.77;;;4.40;99.90;;;;;;5037112;28;20659;-77
2021/12/07 22:58:54;;;;;;;5.83;1.57;;;4.40;99.90;;;;;;5037197;28;20263;-77
2021/12/07 23:01:20;;;;;;;4.07;1.33;;;4.40;99.90;;;;;;5035496;28;20273;-77
2021/12/07 23:03:45;;;;;;;6.33;1.97;;;4.40;99.90;;;;;;5036919;28;20323;-77
2021/12/07 23:06:11;;;;;;;5.03;1.43;;;4.30;99.90;;;;;;5036914;28;20188;-77
2021/12/07 23:08:38;;;;;;;6.07;1.67;;;4.30;99.90;;;;;;5035119;28;20195;-77
2021/12/07 23:11:08;;;;;;;7.33;1.80;;;4.40;99.90;;;;;;5035416;28;20685;-77
2021/12/07 23:13:36;;;;;;;7.20;1.67;;;4.30;99.90;;;;;;5036535;28;20184;-77
2021/12/07 23:16:02;;;;;;;4.87;1.50;;;4.40;99.90;;;;;;5037365;28;20271;-77
2021/12/07 23:18:30;;;;;;;5.13;1.63;;;4.40;99.90;;;;;;5037102;28;20550;-77
2021/12/07 23:21:02;;;;;;;4.50;1.43;;;4.40;99.90;;;;;;5036588;28;20739;-77
2021/12/07 23:23:29;;;;;;;5.73;1.93;;;4.40;99.90;;;;;;5037357;28;20173;-77
2021/12/07 23:25:57;;;;;;;5.47;1.53;;;4.40;99.90;;;;;;5036512;28;20222;-76
2021/12/07 23:28:25;;;;;;;4.23;2.03;;;4.40;99.90;;;;;;5035165;28;20278;-77
2021/12/07 23:30:55;;;;;;;3.93;1.53;;;4.40;99.90;;;;;;5035081;28;20183;-76
2021/12/07 23:33:22;;;;;;;3.93;1.50;;;4.40;99.90;;;;;;5036284;28;20191;-77
2021/12/07 23:35:48;;;;;;;5.97;1.50;;;4.40;99.90;;;;;;5034776;28;20572;-77
2021/12/07 23:38:15;;;;;;;4.80;1.20;;;4.40;99.90;;;;;;5034298;28;20264;-77
2021/12/07 23:40:41;;;;;;;2.77;1.50;;;4.40;99.90;;;;;;5036119;28;20168;-76
2021/12/07 23:43:08;;;;;;;4.80;1.63;;;4.40;99.90;;;;;;5035884;28;20191;-77
2021/12/07 23:45:35;;;;;;;4.53;1.50;;;4.40;99.90;;;;;;5035884;28;20193;-77
2021/12/07 23:48:00;;;;;;;6.97;1.70;;;4.40;99.90;;;;;;5036134;28;20227;-77
2021/12/07 23:50:26;;;;;;;7.70;1.70;;;4.40;99.90;;;;;;5035879;28;20191;-77
2021/12/07 23:52:52;;;;;;;5.47;1.37;;;4.40;99.90;;;;;;5035512;28;20192;-76
2021/12/07 23:55:19;;;;;;;4.80;1.23;;;4.40;99.90;;;;;;5035835;28;20728;-77
2021/12/07 23:57:45;;;;;;;2.83;1.27;;;4.40;99.90;;;;;;5033672;28;20204;-77
